createdAt,value
2019-04-20T00:00:14.437Z,53
2019-04-20T00:01:03.707Z,53
2019-04-20T00:02:22.003Z,53
2019-04-20T00:03:03.660Z,53
2019-04-20T00:04:03.496Z,53
2019-04-20T00:05:03.623Z,53
2019-04-20T00:06:03.710Z,53
2019-04-20T00:07:06.115Z,53
2019-04-20T00:08:27.807Z,54
2019-04-20T00:09:29.777Z,54
2019-04-20T00:10:23.024Z,54
2019-04-20T00:11:32.110Z,54
2019-04-20T00:12:48.392Z,54
2019-04-20T00:13:47.540Z,54
2019-04-20T00:14:27.599Z,54
2019-04-20T00:15:03.385Z,54
2019-04-20T00:16:04.373Z,55
2019-04-20T00:17:03.421Z,55
2019-04-20T00:18:12.138Z,55
2019-04-20T00:19:10.599Z,55
2019-04-20T00:20:27.810Z,55
2019-04-20T00:21:17.883Z,55
2019-04-20T00:22:15.587Z,55
2019-04-20T00:23:03.934Z,55
2019-04-20T00:24:28.939Z,55
2019-04-20T00:25:22.155Z,55
2019-04-20T00:27:13.288Z,55
2019-04-20T00:27:59.225Z,55
2019-04-20T00:29:10.088Z,55
2019-04-20T00:30:06.452Z,55
2019-04-20T00:31:23.135Z,55
2019-04-20T00:31:59.038Z,55
2019-04-20T00:32:58.397Z,55
2019-04-20T00:33:59.021Z,55
2019-04-20T00:34:31.930Z,55
2019-04-20T00:35:04.316Z,55
2019-04-20T00:36:03.517Z,55
2019-04-20T00:37:07.159Z,55
2019-04-20T00:38:03.589Z,55
2019-04-20T00:39:15.423Z,55
2019-04-20T00:40:03.836Z,56
2019-04-20T00:41:17.590Z,56
2019-04-20T00:42:16.635Z,56
2019-04-20T00:43:04.844Z,56
2019-04-20T00:44:30.263Z,56
2019-04-20T00:45:31.880Z,56
2019-04-20T00:46:41.816Z,56
2019-04-20T00:47:56.158Z,56
2019-04-20T00:48:45.000Z,56
2019-04-20T00:50:10.354Z,56
2019-04-20T00:51:23.720Z,56
2019-04-20T00:52:29.761Z,56
2019-04-20T00:53:16.961Z,56
2019-04-20T00:53:43.113Z,56
2019-04-20T00:54:07.055Z,56
2019-04-20T00:55:04.368Z,56
2019-04-20T00:56:03.592Z,56
2019-04-20T00:57:36.726Z,56
2019-04-20T00:58:38.317Z,56
2019-04-20T01:01:19.776Z,56
2019-04-20T01:02:12.459Z,56
2019-04-20T01:03:04.168Z,56
2019-04-20T01:04:19.698Z,56
2019-04-20T01:05:17.777Z,56
2019-04-20T01:06:10.721Z,56
2019-04-20T01:07:08.123Z,56
2019-04-20T01:07:48.471Z,56
2019-04-20T01:08:11.262Z,56
2019-04-20T01:09:03.644Z,56
2019-04-20T01:10:07.067Z,56
2019-04-20T01:11:04.426Z,56
2019-04-20T01:12:29.717Z,56
2019-04-20T01:13:23.060Z,56
2019-04-20T01:14:17.086Z,56
2019-04-20T01:15:34.323Z,56
2019-04-20T01:16:43.866Z,56
2019-04-20T01:17:13.582Z,56
2019-04-20T01:18:03.459Z,56
2019-04-20T01:19:03.158Z,56
2019-04-20T01:20:03.052Z,56
2019-04-20T01:21:24.779Z,56
2019-04-20T01:22:23.983Z,56
2019-04-20T01:23:22.382Z,56
2019-04-20T01:24:21.690Z,56
2019-04-20T01:25:33.718Z,56
2019-04-20T01:26:20.572Z,56
2019-04-20T01:27:46.775Z,56
2019-04-20T01:29:05.987Z,56
2019-04-20T01:29:39.145Z,56
2019-04-20T01:30:39.431Z,56
2019-04-20T01:31:52.309Z,56
2019-04-20T01:32:54.923Z,56
2019-04-20T01:33:54.903Z,56
2019-04-20T01:34:58.422Z,56
2019-04-20T01:37:04.212Z,57
2019-04-20T01:38:06.665Z,56
2019-04-20T01:39:02.581Z,57
2019-04-20T01:39:43.080Z,57
2019-04-20T01:40:11.304Z,57
2019-04-20T01:41:03.578Z,57
2019-04-20T01:42:04.811Z,57
2019-04-20T01:43:03.956Z,57
2019-04-20T01:44:05.233Z,57
2019-04-20T01:45:27.810Z,57
2019-04-20T01:46:23.400Z,57
2019-04-20T01:47:12.928Z,57
2019-04-20T01:48:09.856Z,57
2019-04-20T01:49:25.355Z,57
2019-04-20T01:50:29.963Z,57
2019-04-20T01:51:39.165Z,56
2019-04-20T01:52:50.277Z,56
2019-04-20T01:54:05.098Z,56
2019-04-20T01:55:04.580Z,56
2019-04-20T01:56:54.374Z,56
2019-04-20T01:59:27.358Z,56
2019-04-20T02:00:35.558Z,56
2019-04-20T02:01:29.402Z,56
2019-04-20T02:02:21.455Z,56
2019-04-20T02:03:11.185Z,56
2019-04-20T02:04:20.038Z,56
2019-04-20T02:05:29.374Z,56
2019-04-20T02:06:21.623Z,56
2019-04-20T02:07:11.598Z,57
2019-04-20T02:08:24.882Z,56
2019-04-20T02:09:25.684Z,57
2019-04-20T02:10:15.499Z,57
2019-04-20T02:11:18.444Z,57
2019-04-20T02:12:27.310Z,57
2019-04-20T02:13:11.240Z,57
2019-04-20T02:14:13.833Z,57
2019-04-20T02:15:32.459Z,57
2019-04-20T02:16:35.327Z,57
2019-04-20T02:17:42.213Z,57
2019-04-20T02:19:01.514Z,57
2019-04-20T02:21:09.263Z,57
2019-04-20T02:22:09.574Z,57
2019-04-20T02:23:47.913Z,57
2019-04-20T02:24:14.236Z,57
2019-04-20T02:25:04.040Z,57
2019-04-20T02:26:03.179Z,57
2019-04-20T02:27:04.344Z,58
2019-04-20T02:29:12.044Z,58
2019-04-20T02:32:15.169Z,58
2019-04-20T02:33:41.796Z,58
2019-04-20T02:34:47.491Z,58
2019-04-20T02:36:10.093Z,58
2019-04-20T02:38:21.395Z,58
2019-04-20T02:39:11.408Z,58
2019-04-20T02:40:15.192Z,58
2019-04-20T02:41:09.281Z,58
2019-04-20T02:41:17.249Z,58
2019-04-20T02:42:07.660Z,58
2019-04-20T02:44:40.208Z,59
2019-04-20T02:45:39.745Z,59
2019-04-20T02:47:06.730Z,59
2019-04-20T02:47:29.940Z,59
2019-04-20T02:48:29.485Z,59
2019-04-20T02:49:50.605Z,59
2019-04-20T02:51:52.187Z,59
2019-04-20T02:53:02.535Z,59
2019-04-20T02:54:14.783Z,59
2019-04-20T02:55:39.553Z,59
2019-04-20T02:56:56.785Z,59
2019-04-20T02:56:56.806Z,59
2019-04-20T02:58:06.562Z,59
2019-04-20T02:59:01.820Z,59
2019-04-20T03:00:23.485Z,59
2019-04-20T03:00:37.835Z,59
2019-04-20T03:02:52.726Z,59
2019-04-20T03:03:43.161Z,59
2019-04-20T03:04:39.010Z,59
2019-04-20T03:05:58.132Z,59
2019-04-20T03:08:02.093Z,59
2019-04-20T03:09:25.188Z,59
2019-04-20T03:10:33.717Z,59
2019-04-20T03:11:46.169Z,59
2019-04-20T03:12:42.611Z,59
2019-04-20T03:13:23.879Z,59
2019-04-20T03:14:26.370Z,59
2019-04-20T03:15:07.039Z,59
2019-04-20T03:16:31.560Z,59
2019-04-20T03:17:20.115Z,59
2019-04-20T03:19:11.645Z,59
2019-04-20T03:19:58.132Z,59
2019-04-20T03:21:31.260Z,59
2019-04-20T03:23:04.037Z,60
2019-04-20T03:24:30.866Z,60
2019-04-20T03:26:27.332Z,60
2019-04-20T03:27:18.224Z,60
2019-04-20T03:28:13.757Z,60
2019-04-20T03:29:15.748Z,60
2019-04-20T03:30:30.335Z,60
2019-04-20T03:33:41.097Z,60
2019-04-20T03:35:05.005Z,60
2019-04-20T03:35:32.782Z,60
2019-04-20T03:37:48.165Z,60
2019-04-20T03:38:14.078Z,60
2019-04-20T03:39:12.526Z,61
2019-04-20T03:40:12.404Z,61
2019-04-20T03:41:01.068Z,60
2019-04-20T03:41:40.230Z,60
2019-04-20T03:42:11.057Z,60
2019-04-20T03:43:04.014Z,60
2019-04-20T03:44:25.796Z,60
2019-04-20T03:45:21.032Z,60
2019-04-20T03:46:21.656Z,60
2019-04-20T03:47:33.683Z,61
2019-04-20T03:48:54.477Z,61
2019-04-20T03:50:23.857Z,61
2019-04-20T03:51:23.429Z,61
2019-04-20T03:52:30.827Z,61
2019-04-20T03:53:34.193Z,61
2019-04-20T03:54:02.284Z,61
2019-04-20T03:54:58.890Z,61
2019-04-20T03:57:34.203Z,61
2019-04-20T03:58:44.014Z,61
2019-04-20T04:00:26.121Z,61
2019-04-20T04:01:09.218Z,61
2019-04-20T04:03:58.285Z,61
2019-04-20T04:05:04.152Z,61
2019-04-20T04:06:04.922Z,61
2019-04-20T04:06:42.942Z,61
2019-04-20T04:07:40.205Z,61
2019-04-20T04:08:36.228Z,61
2019-04-20T04:11:08.399Z,61
2019-04-20T04:11:58.357Z,61
2019-04-20T04:12:36.792Z,61
2019-04-20T04:13:03.249Z,61
2019-04-20T04:14:05.203Z,61
2019-04-20T04:15:04.361Z,61
2019-04-20T04:16:18.783Z,61
2019-04-20T04:17:08.588Z,62
2019-04-20T04:18:29.630Z,62
2019-04-20T04:19:27.575Z,62
2019-04-20T04:20:20.983Z,62
2019-04-20T04:21:40.438Z,62
2019-04-20T04:23:09.828Z,62
2019-04-20T04:24:09.170Z,62
2019-04-20T04:24:56.850Z,62
2019-04-20T04:27:08.715Z,62
2019-04-20T04:28:06.882Z,62
2019-04-20T04:30:14.039Z,62
2019-04-20T04:31:07.735Z,62
2019-04-20T04:32:18.537Z,62
2019-04-20T04:34:11.881Z,62
2019-04-20T04:35:01.441Z,62
2019-04-20T04:35:56.363Z,62
2019-04-20T04:36:53.527Z,62
2019-04-20T04:38:17.277Z,62
2019-04-20T04:39:42.682Z,62
2019-04-20T04:41:30.706Z,62
2019-04-20T04:42:16.521Z,62
2019-04-20T04:43:25.251Z,62
2019-04-20T04:44:02.722Z,62
2019-04-20T04:44:50.227Z,62
2019-04-20T04:45:17.386Z,62
2019-04-20T04:46:04.141Z,62
2019-04-20T04:47:13.687Z,62
2019-04-20T04:48:29.762Z,62
2019-04-20T04:49:34.814Z,62
2019-04-20T04:50:24.609Z,62
2019-04-20T04:51:38.385Z,62
2019-04-20T04:52:28.619Z,62
2019-04-20T04:53:50.456Z,62
2019-04-20T04:54:39.939Z,62
2019-04-20T04:55:47.601Z,62
2019-04-20T04:56:23.080Z,62
2019-04-20T04:57:03.711Z,62
2019-04-20T04:58:04.550Z,62
2019-04-20T04:59:04.083Z,62
2019-04-20T05:00:03.825Z,62
2019-04-20T05:01:18.277Z,62
2019-04-20T05:02:03.542Z,62
2019-04-20T05:04:24.621Z,62
2019-04-20T05:06:18.216Z,62
2019-04-20T05:07:07.124Z,62
2019-04-20T05:08:02.661Z,62
2019-04-20T05:08:43.515Z,62
2019-04-20T05:09:17.486Z,62
2019-04-20T05:10:03.735Z,62
2019-04-20T05:11:04.488Z,62
2019-04-20T05:12:26.231Z,62
2019-04-20T05:13:05.114Z,62
2019-04-20T05:14:26.110Z,62
2019-04-20T05:15:48.270Z,62
2019-04-20T05:17:01.402Z,62
2019-04-20T05:19:29.072Z,62
2019-04-20T05:20:13.058Z,62
2019-04-20T05:22:24.098Z,62
2019-04-20T05:23:20.358Z,62
2019-04-20T05:25:04.511Z,62
2019-04-20T05:26:07.186Z,62
2019-04-20T05:27:13.071Z,62
2019-04-20T05:28:12.926Z,62
2019-04-20T05:28:53.126Z,62
2019-04-20T05:29:29.369Z,62
2019-04-20T05:30:03.889Z,62
2019-04-20T05:31:13.320Z,62
2019-04-20T05:32:35.647Z,62
2019-04-20T05:34:07.904Z,61
2019-04-20T05:35:30.461Z,61
2019-04-20T05:36:00.761Z,61
2019-04-20T05:37:27.045Z,60
2019-04-20T05:38:31.044Z,60
2019-04-20T05:39:26.427Z,60
2019-04-20T05:40:26.049Z,59
2019-04-20T05:41:21.147Z,59
2019-04-20T05:42:09.002Z,59
2019-04-20T05:43:27.142Z,59
2019-04-20T05:44:12.260Z,59
2019-04-20T05:45:16.147Z,59
2019-04-20T05:46:09.204Z,59
2019-04-20T05:47:33.027Z,59
2019-04-20T05:48:16.235Z,59
2019-04-20T05:50:12.367Z,59
2019-04-20T05:52:23.892Z,58
2019-04-20T05:53:32.180Z,58
2019-04-20T05:54:18.853Z,58
2019-04-20T05:55:20.666Z,56
2019-04-20T05:56:14.638Z,56
2019-04-20T05:57:34.730Z,54
2019-04-20T05:58:21.568Z,53
2019-04-20T05:59:14.809Z,53
2019-04-20T06:00:26.303Z,53
2019-04-20T06:02:31.466Z,52
2019-04-20T06:03:25.715Z,52
2019-04-20T06:04:05.284Z,53
2019-04-20T06:06:07.517Z,53
2019-04-20T06:07:13.510Z,53
2019-04-20T06:09:59.274Z,52
2019-04-20T06:10:11.028Z,53
2019-04-20T06:11:25.449Z,53
2019-04-20T06:12:39.842Z,53
2019-04-20T06:13:21.869Z,52
2019-04-20T06:13:44.189Z,52
2019-04-20T06:14:39.096Z,52
2019-04-20T06:16:17.778Z,51
2019-04-20T06:17:31.195Z,51
2019-04-20T06:20:35.688Z,51
2019-04-20T06:21:30.946Z,51
2019-04-20T06:22:54.476Z,50
2019-04-20T06:25:43.639Z,49
2019-04-20T06:26:26.142Z,49
2019-04-20T06:27:39.765Z,49
2019-04-20T06:28:29.579Z,48
2019-04-20T06:29:09.103Z,48
2019-04-20T06:31:12.754Z,48
2019-04-20T06:32:20.072Z,48
2019-04-20T06:35:40.410Z,47
2019-04-20T06:36:27.311Z,47
2019-04-20T06:37:05.679Z,47
2019-04-20T06:38:00.257Z,47
2019-04-20T06:39:41.183Z,47
2019-04-20T06:40:53.809Z,47
2019-04-20T06:41:59.781Z,47
2019-04-20T06:43:03.905Z,47
2019-04-20T06:44:39.195Z,46
2019-04-20T06:45:32.937Z,46
2019-04-20T06:46:34.545Z,45
2019-04-20T06:47:38.672Z,45
2019-04-20T06:49:37.694Z,45
2019-04-20T06:50:13.467Z,44
2019-04-20T06:51:07.078Z,44
2019-04-20T06:52:31.901Z,44
2019-04-20T06:53:31.731Z,44
2019-04-20T06:54:12.196Z,44
2019-04-20T06:55:08.091Z,44
2019-04-20T06:56:28.875Z,44
2019-04-20T06:57:30.898Z,44
2019-04-20T06:58:33.058Z,44
2019-04-20T07:00:30.321Z,44
2019-04-20T07:01:10.381Z,43
2019-04-20T07:02:35.385Z,43
2019-04-20T07:05:11.655Z,42
2019-04-20T07:05:44.611Z,42
2019-04-20T07:06:55.855Z,41
2019-04-20T07:08:08.068Z,40
2019-04-20T07:12:11.019Z,40
2019-04-20T07:13:06.004Z,40
2019-04-20T07:13:51.818Z,40
2019-04-20T07:14:32.782Z,39
2019-04-20T07:17:17.502Z,39
2019-04-20T07:18:29.514Z,38
2019-04-20T07:19:18.487Z,38
2019-04-20T07:20:15.304Z,38
2019-04-20T07:23:26.270Z,38
2019-04-20T07:24:30.399Z,38
2019-04-20T07:25:36.958Z,39
2019-04-20T07:26:22.056Z,39
2019-04-20T07:27:29.325Z,39
2019-04-20T07:27:57.751Z,39
2019-04-20T07:29:20.813Z,39
2019-04-20T07:30:21.045Z,39
2019-04-20T07:31:29.147Z,39
2019-04-20T07:32:01.328Z,39
2019-04-20T07:33:15.481Z,39
2019-04-20T07:34:10.164Z,39
2019-04-20T07:35:19.482Z,39
2019-04-20T07:36:37.297Z,39
2019-04-20T07:39:06.948Z,39
2019-04-20T07:39:32.588Z,39
2019-04-20T07:40:14.942Z,39
2019-04-20T07:41:20.179Z,39
2019-04-20T07:42:55.038Z,39
2019-04-20T07:43:14.491Z,39
2019-04-20T07:45:36.085Z,39
2019-04-20T07:48:20.187Z,38
2019-04-20T07:49:07.162Z,38
2019-04-20T07:50:16.967Z,38
2019-04-20T07:50:57.871Z,38
2019-04-20T07:51:35.313Z,37
2019-04-20T07:52:04.191Z,37
2019-04-20T07:54:22.874Z,37
2019-04-20T07:56:10.103Z,36
2019-04-20T07:57:14.203Z,37
2019-04-20T07:58:04.765Z,37
2019-04-20T07:58:45.867Z,37
2019-04-20T07:59:58.542Z,36
2019-04-20T08:01:44.717Z,36
2019-04-20T08:03:27.962Z,34
2019-04-20T08:04:22.214Z,34
2019-04-20T08:05:04.245Z,34
2019-04-20T08:05:51.077Z,34
2019-04-20T08:06:36.618Z,34
2019-04-20T08:07:17.200Z,34
2019-04-20T08:09:18.973Z,34
2019-04-20T08:09:51.220Z,34
2019-04-20T08:10:58.428Z,34
2019-04-20T08:13:38.535Z,35
2019-04-20T08:14:44.257Z,35
2019-04-20T08:17:13.648Z,33
2019-04-20T08:18:06.138Z,33
2019-04-20T08:18:30.860Z,33
2019-04-20T08:19:16.007Z,33
2019-04-20T08:20:19.842Z,33
2019-04-20T08:21:15.154Z,33
2019-04-20T08:23:28.405Z,33
2019-04-20T08:25:16.015Z,33
2019-04-20T08:25:45.324Z,33
2019-04-20T08:26:34.341Z,34
2019-04-20T08:27:16.189Z,33
2019-04-20T08:28:35.793Z,33
2019-04-20T08:29:58.697Z,34
2019-04-20T08:30:56.935Z,34
2019-04-20T08:33:13.054Z,33
2019-04-20T08:34:26.108Z,33
2019-04-20T08:35:31.720Z,33
2019-04-20T08:36:26.710Z,33
2019-04-20T08:38:49.664Z,33
2019-04-20T08:40:11.802Z,33
2019-04-20T08:45:23.394Z,33
2019-04-20T08:45:23.399Z,32
2019-04-20T08:45:58.513Z,32
2019-04-20T08:48:02.594Z,32
2019-04-20T08:48:32.685Z,32
2019-04-20T08:49:29.301Z,32
2019-04-20T08:50:22.136Z,32
2019-04-20T08:51:25.211Z,32
2019-04-20T08:52:11.217Z,32
2019-04-20T08:54:02.084Z,32
2019-04-20T08:55:14.385Z,30
2019-04-20T08:55:52.339Z,31
2019-04-20T08:56:44.747Z,30
2019-04-20T08:57:05.710Z,30
2019-04-20T08:58:04.665Z,30
2019-04-20T08:59:04.154Z,30
2019-04-20T09:00:10.718Z,30
2019-04-20T09:01:24.326Z,30
2019-04-20T09:02:18.777Z,30
2019-04-20T09:03:34.937Z,31
2019-04-20T09:04:41.113Z,30
2019-04-20T09:05:45.483Z,30
2019-04-20T09:07:03.795Z,30
2019-04-20T09:07:28.759Z,30
2019-04-20T09:08:41.802Z,30
2019-04-20T09:10:33.964Z,30
2019-04-20T09:11:28.469Z,30
2019-04-20T09:12:14.318Z,29
2019-04-20T09:12:56.908Z,29
2019-04-20T09:13:42.985Z,29
2019-04-20T09:14:10.885Z,29
2019-04-20T09:15:04.023Z,29
2019-04-20T09:16:04.431Z,29
2019-04-20T09:17:35.495Z,29
2019-04-20T09:18:47.134Z,29
2019-04-20T09:19:36.412Z,29
2019-04-20T09:20:47.219Z,29
2019-04-20T09:21:42.449Z,29
2019-04-20T09:26:54.101Z,29
2019-04-20T09:27:08.524Z,29
2019-04-20T09:27:50.680Z,29
2019-04-20T09:28:45.028Z,29
2019-04-20T09:30:02.985Z,28
2019-04-20T09:31:09.022Z,28
2019-04-20T09:32:23.013Z,29
2019-04-20T09:33:14.141Z,29
2019-04-20T09:34:24.478Z,28
2019-04-20T09:36:23.519Z,27
2019-04-20T09:36:53.292Z,27
2019-04-20T09:38:18.905Z,28
2019-04-20T09:39:08.294Z,28
2019-04-20T09:39:39.216Z,27
2019-04-20T09:41:05.916Z,27
2019-04-20T09:42:01.344Z,28
2019-04-20T09:42:03.780Z,28
2019-04-20T09:43:04.740Z,27
2019-04-20T09:44:04.809Z,27
2019-04-20T09:45:21.384Z,27
2019-04-20T09:46:11.790Z,27
2019-04-20T09:47:11.016Z,27
2019-04-20T09:48:33.140Z,27
2019-04-20T09:49:47.985Z,27
2019-04-20T09:51:08.985Z,27
2019-04-20T09:52:01.256Z,26
2019-04-20T09:52:56.723Z,27
2019-04-20T09:53:50.264Z,27
2019-04-20T09:55:10.195Z,27
2019-04-20T09:56:06.088Z,27
2019-04-20T09:57:08.800Z,27
2019-04-20T09:58:00.938Z,27
2019-04-20T09:59:12.046Z,27
2019-04-20T10:00:11.522Z,27
2019-04-20T10:00:57.840Z,27
2019-04-20T10:01:43.582Z,27
2019-04-20T10:02:28.076Z,27
2019-04-20T10:03:02.962Z,27
2019-04-20T10:04:03.636Z,27
2019-04-20T10:05:02.780Z,27
2019-04-20T10:06:03.609Z,27
2019-04-20T10:07:22.123Z,27
2019-04-20T10:08:12.255Z,27
2019-04-20T10:09:05.283Z,27
2019-04-20T10:10:40.444Z,27
2019-04-20T10:11:03.782Z,27
2019-04-20T10:12:03.995Z,27
2019-04-20T10:13:07.523Z,27
2019-04-20T10:14:04.152Z,26
2019-04-20T10:15:25.963Z,26
2019-04-20T10:16:04.009Z,26
2019-04-20T10:17:03.689Z,26
2019-04-20T10:18:03.939Z,26
2019-04-20T10:19:05.063Z,26
2019-04-20T10:20:32.747Z,26
2019-04-20T10:21:03.122Z,25
2019-04-20T10:22:04.881Z,25
2019-04-20T10:23:04.785Z,24
2019-04-20T10:24:03.589Z,23
2019-04-20T10:25:04.792Z,23
2019-04-20T10:26:03.063Z,23
2019-04-20T10:27:03.259Z,25
2019-04-20T10:28:03.542Z,24
2019-04-20T10:29:03.703Z,24
2019-04-20T10:30:06.411Z,25
2019-04-20T10:31:04.520Z,25
2019-04-20T10:32:17.937Z,25
2019-04-20T10:33:03.846Z,25
2019-04-20T10:34:04.092Z,25
2019-04-20T10:35:04.692Z,25
2019-04-20T10:36:03.720Z,25
2019-04-20T10:37:04.071Z,25
2019-04-20T10:38:03.444Z,25
2019-04-20T10:39:04.611Z,25
2019-04-20T10:40:03.109Z,25
2019-04-20T10:41:39.749Z,25
2019-04-20T10:42:06.160Z,25
2019-04-20T10:43:06.305Z,23
2019-04-20T10:44:03.060Z,24
2019-04-20T10:45:06.016Z,25
2019-04-20T10:46:04.859Z,23
2019-04-20T10:47:03.184Z,22
2019-04-20T10:48:03.596Z,22
2019-04-20T10:49:09.563Z,22
2019-04-20T10:50:05.144Z,23
2019-04-20T10:51:03.385Z,23
2019-04-20T10:52:03.779Z,23
2019-04-20T10:53:03.847Z,23
2019-04-20T10:54:04.727Z,23
2019-04-20T10:55:03.933Z,23
2019-04-20T10:56:03.694Z,23
2019-04-20T10:57:03.678Z,23
2019-04-20T10:58:03.960Z,23
2019-04-20T10:59:03.710Z,23
2019-04-20T11:00:03.976Z,23
2019-04-20T11:01:04.125Z,23
2019-04-20T11:02:03.779Z,23
2019-04-20T11:03:03.987Z,23
2019-04-20T11:04:03.238Z,23
2019-04-20T11:05:04.624Z,23
2019-04-20T11:06:05.033Z,23
2019-04-20T11:07:03.337Z,23
2019-04-20T11:08:04.497Z,23
2019-04-20T11:09:02.720Z,24
2019-04-20T11:10:29.199Z,24
2019-04-20T11:11:28.346Z,23
2019-04-20T11:12:04.372Z,23
2019-04-20T11:13:03.481Z,23
2019-04-20T11:14:31.083Z,23
2019-04-20T11:15:03.454Z,23
2019-04-20T11:16:04.478Z,23
2019-04-20T11:17:04.591Z,23
2019-04-20T11:18:03.886Z,22
2019-04-20T11:19:03.497Z,22
2019-04-20T11:20:03.558Z,22
2019-04-20T11:21:03.805Z,22
2019-04-20T11:22:04.388Z,23
2019-04-20T11:23:04.532Z,23
2019-04-20T11:24:02.988Z,23
2019-04-20T11:25:04.483Z,23
2019-04-20T11:26:04.535Z,23
2019-04-20T11:27:02.717Z,23
2019-04-20T11:28:04.189Z,23
2019-04-20T11:29:04.428Z,23
2019-04-20T11:30:04.564Z,23
2019-04-20T11:31:04.224Z,23
2019-04-20T11:32:05.325Z,23
2019-04-20T11:33:04.546Z,23
2019-04-20T11:34:04.197Z,23
2019-04-20T11:35:32.581Z,23
2019-04-20T11:36:03.509Z,23
2019-04-20T11:37:03.589Z,23
2019-04-20T11:38:05.129Z,23
2019-04-20T11:39:05.074Z,23
2019-04-20T11:40:03.720Z,23
2019-04-20T11:41:29.063Z,23
2019-04-20T11:42:03.831Z,23
2019-04-20T11:43:04.098Z,23
2019-04-20T11:44:03.509Z,23
2019-04-20T11:45:04.811Z,23
2019-04-20T11:46:03.192Z,23
2019-04-20T11:47:03.612Z,23
2019-04-20T11:48:03.641Z,23
2019-04-20T11:49:03.842Z,23
2019-04-20T11:50:03.977Z,23
2019-04-20T11:51:03.772Z,23
2019-04-20T11:52:03.737Z,23
2019-04-20T11:53:03.744Z,23
2019-04-20T11:54:04.438Z,23
2019-04-20T11:55:04.585Z,23
2019-04-20T11:56:25.862Z,23
2019-04-20T11:57:03.939Z,23
2019-04-20T11:58:03.955Z,23
2019-04-20T11:59:03.236Z,23
2019-04-20T12:00:05.132Z,23
2019-04-20T12:01:22.382Z,23
2019-04-20T12:02:14.629Z,23
2019-04-20T12:03:39.100Z,23
2019-04-20T12:04:49.168Z,23
2019-04-20T12:05:39.523Z,23
2019-04-20T12:06:08.863Z,23
2019-04-20T12:07:03.160Z,23
2019-04-20T12:08:03.305Z,23
2019-04-20T12:09:03.298Z,23
2019-04-20T12:10:22.284Z,23
2019-04-20T12:11:55.708Z,23
2019-04-20T12:12:41.878Z,23
2019-04-20T12:13:04.033Z,23
2019-04-20T12:14:03.135Z,23
2019-04-20T12:15:04.604Z,23
2019-04-20T12:16:03.717Z,23
2019-04-20T12:17:03.969Z,23
2019-04-20T12:18:02.946Z,23
2019-04-20T12:19:04.515Z,23
2019-04-20T12:20:04.119Z,23
2019-04-20T12:21:03.198Z,23
2019-04-20T12:22:03.747Z,23
2019-04-20T12:23:04.505Z,23
2019-04-20T12:24:04.630Z,23
2019-04-20T12:25:03.595Z,22
2019-04-20T12:26:04.978Z,23
2019-04-20T12:27:05.036Z,23
2019-04-20T12:28:05.526Z,23
2019-04-20T12:29:03.733Z,23
2019-04-20T12:30:03.935Z,23
2019-04-20T12:31:24.461Z,22
2019-04-20T12:32:10.650Z,22
2019-04-20T12:33:07.420Z,23
2019-04-20T12:34:04.679Z,22
2019-04-20T12:35:04.529Z,23
2019-04-20T12:36:03.345Z,23
2019-04-20T12:37:03.274Z,23
2019-04-20T12:38:03.402Z,23
2019-04-20T12:39:03.602Z,23
2019-04-20T12:40:03.365Z,23
2019-04-20T12:41:12.462Z,23
2019-04-20T12:42:11.299Z,22
2019-04-20T12:43:04.929Z,22
2019-04-20T12:44:04.076Z,22
2019-04-20T12:45:04.103Z,22
2019-04-20T12:46:03.347Z,22
2019-04-20T12:47:03.845Z,22
2019-04-20T12:48:04.137Z,22
2019-04-20T12:49:03.200Z,22
2019-04-20T12:50:03.686Z,22
2019-04-20T12:51:04.074Z,22
2019-04-20T12:52:08.575Z,22
2019-04-20T12:53:04.641Z,22
2019-04-20T12:54:02.812Z,22
2019-04-20T12:55:06.600Z,22
2019-04-20T12:56:02.791Z,22
2019-04-20T12:57:04.817Z,22
2019-04-20T12:58:05.045Z,22
2019-04-20T12:59:03.639Z,22
2019-04-20T13:00:03.778Z,22
2019-04-20T13:01:04.686Z,22
2019-04-20T13:02:04.815Z,22
2019-04-20T13:03:05.428Z,21
2019-04-20T13:04:09.633Z,22
2019-04-20T13:05:03.815Z,22
2019-04-20T13:06:03.981Z,21
2019-04-20T13:07:03.994Z,22
2019-04-20T13:08:09.224Z,22
2019-04-20T13:09:05.908Z,22
2019-04-20T13:10:07.651Z,22
2019-04-20T13:11:04.790Z,22
2019-04-20T13:12:13.863Z,22
2019-04-20T13:13:04.784Z,22
2019-04-20T13:14:04.363Z,22
2019-04-20T13:15:04.635Z,22
2019-04-20T13:16:04.711Z,21
2019-04-20T13:17:04.479Z,21
2019-04-20T13:18:03.502Z,21
2019-04-20T13:19:03.853Z,21
2019-04-20T13:20:03.942Z,21
2019-04-20T13:21:05.298Z,21
2019-04-20T13:22:05.220Z,21
2019-04-20T13:23:09.247Z,21
2019-04-20T13:24:05.361Z,21
2019-04-20T13:25:03.428Z,21
2019-04-20T13:26:11.885Z,20
2019-04-20T13:27:03.191Z,20
2019-04-20T13:28:03.547Z,20
2019-04-20T13:29:04.926Z,20
2019-04-20T13:30:05.155Z,20
2019-04-20T13:31:04.162Z,21
2019-04-20T13:32:03.016Z,21
2019-04-20T13:33:04.199Z,21
2019-04-20T13:34:03.887Z,21
2019-04-20T13:35:04.714Z,21
2019-04-20T13:36:04.300Z,21
2019-04-20T13:37:04.452Z,21
2019-04-20T13:38:04.753Z,21
2019-04-20T13:39:04.062Z,21
2019-04-20T13:40:05.098Z,21
2019-04-20T13:41:04.287Z,21
2019-04-20T13:42:27.999Z,21
2019-04-20T13:43:03.745Z,21
2019-04-20T13:44:07.996Z,21
2019-04-20T13:45:04.553Z,20
2019-04-20T13:46:05.115Z,21
2019-04-20T13:47:05.274Z,21
2019-04-20T13:48:04.650Z,21
2019-04-20T13:49:05.104Z,21
2019-04-20T13:50:03.539Z,21
2019-04-20T13:51:05.609Z,21
2019-04-20T13:52:04.809Z,20
2019-04-20T13:53:03.687Z,20
2019-04-20T13:54:24.063Z,21
2019-04-20T13:55:03.515Z,21
2019-04-20T13:56:03.973Z,21
2019-04-20T13:57:04.102Z,21
2019-04-20T13:58:04.930Z,21
2019-04-20T13:59:04.102Z,21
2019-04-20T14:00:04.366Z,21
2019-04-20T14:01:03.366Z,20
2019-04-20T14:02:04.753Z,20
2019-04-20T14:03:02.918Z,20
2019-04-20T14:04:03.340Z,21
2019-04-20T14:05:04.908Z,21
2019-04-20T14:06:04.851Z,21
2019-04-20T14:07:03.893Z,21
2019-04-20T14:08:03.312Z,21
2019-04-20T14:09:03.866Z,21
2019-04-20T14:10:03.921Z,21
2019-04-20T14:11:05.379Z,21
2019-04-20T14:12:36.872Z,21
2019-04-20T14:13:21.860Z,21
2019-04-20T14:14:08.549Z,21
2019-04-20T14:15:05.178Z,21
2019-04-20T14:16:05.238Z,21
2019-04-20T14:17:03.645Z,21
2019-04-20T14:18:05.074Z,21
2019-04-20T14:19:05.308Z,21
2019-04-20T14:20:20.254Z,21
2019-04-20T14:21:03.771Z,21
2019-04-20T14:22:04.154Z,21
2019-04-20T14:23:03.370Z,21
2019-04-20T14:24:04.544Z,21
2019-04-20T14:25:05.201Z,21
2019-04-20T14:26:05.135Z,21
2019-04-20T14:27:03.612Z,21
2019-04-20T14:28:03.277Z,21
2019-04-20T14:29:03.485Z,20
2019-04-20T14:30:03.688Z,20
2019-04-20T14:31:03.977Z,20
2019-04-20T14:32:11.786Z,21
2019-04-20T14:33:05.310Z,21
2019-04-20T14:34:04.991Z,21
2019-04-20T14:35:03.399Z,21
2019-04-20T14:36:03.522Z,21
2019-04-20T14:37:03.008Z,21
2019-04-20T14:38:04.045Z,21
2019-04-20T14:39:02.912Z,21
2019-04-20T14:40:04.422Z,21
2019-04-20T14:41:04.506Z,21
2019-04-20T14:42:02.834Z,21
2019-04-20T14:43:03.673Z,20
2019-04-20T14:44:03.833Z,20
2019-04-20T14:45:03.143Z,21
2019-04-20T14:46:03.407Z,21
2019-04-20T14:47:03.834Z,21
2019-04-20T14:48:03.927Z,21
2019-04-20T14:49:03.093Z,21
2019-04-20T14:50:03.619Z,21
2019-04-20T14:51:03.731Z,21
2019-04-20T14:52:06.001Z,21
2019-04-20T14:53:03.291Z,21
2019-04-20T14:54:03.526Z,21
2019-04-20T14:55:03.953Z,21
2019-04-20T14:56:03.015Z,21
2019-04-20T14:57:03.636Z,21
2019-04-20T14:58:03.857Z,21
2019-04-20T14:59:03.495Z,21
2019-04-20T15:00:03.923Z,21
2019-04-20T15:01:04.982Z,21
2019-04-20T15:02:02.991Z,21
2019-04-20T15:03:04.161Z,21
2019-04-20T15:04:20.155Z,21
2019-04-20T15:05:03.545Z,21
2019-04-20T15:06:03.623Z,21
2019-04-20T15:07:04.821Z,21
2019-04-20T15:08:03.194Z,21
2019-04-20T15:09:03.745Z,21
2019-04-20T15:10:04.989Z,21
2019-04-20T15:11:05.246Z,21
2019-04-20T15:12:04.812Z,21
2019-04-20T15:13:10.196Z,21
2019-04-20T15:14:04.908Z,21
2019-04-20T15:15:04.652Z,21
2019-04-20T15:16:04.875Z,19
2019-04-20T15:17:04.954Z,19
2019-04-20T15:18:03.923Z,19
2019-04-20T15:19:03.324Z,19
2019-04-20T15:20:03.751Z,19
2019-04-20T15:21:03.963Z,19
2019-04-20T15:22:03.504Z,19
2019-04-20T15:23:03.678Z,20
2019-04-20T15:24:03.910Z,20
2019-04-20T15:25:03.548Z,20
2019-04-20T15:26:04.594Z,20
2019-04-20T15:27:03.082Z,20
2019-04-20T15:28:03.003Z,20
2019-04-20T15:29:04.610Z,19
2019-04-20T15:30:04.700Z,19
2019-04-20T15:31:03.211Z,19
2019-04-20T15:32:04.372Z,19
2019-04-20T15:33:03.319Z,19